Time;durP1;ratioP1;P1;durP2;ratioP2;P2;SDS_P1;SDS_P2;PMS_P1;PMS_P2;Temp;Humidity;BMP_temperature;BMP_pressure;BME280_temperature;BME280_humidity;BME280_pressure;Samples;Min_cycle;Max_cycle;Signal;HPM_P1;HPM_P2
2022/10/20 00:00:13;;;;;;;18.37;8.03;;;;;;;;;;5018602;28;20542;-61
2022/10/20 00:02:39;;;;;;;19.27;8.67;;;;;;;;;;5020990;28;20052;-61
2022/10/20 00:05:06;;;;;;;12.03;7.87;;;;;;;;;;5020706;28;20053;-61
2022/10/20 00:07:32;;;;;;;22.23;8.53;;;;;;;;;;5019423;28;20038;-61
2022/10/20 00:09:58;;;;;;;22.07;8.03;;;;;;;;;;5020092;28;20043;-61
2022/10/20 00:12:24;;;;;;;14.73;8.23;;;;;;;;;;5021512;28;20046;-61
2022/10/20 00:14:50;;;;;;;14.37;7.57;;;;;;;;;;5020684;28;20104;-61
2022/10/20 00:17:16;;;;;;;16.50;8.43;;;;;;;;;;5019385;28;20049;-61
2022/10/20 00:19:42;;;;;;;17.80;9.60;;;;;;;;;;5021168;28;20042;-61
2022/10/20 00:22:08;;;;;;;21.73;9.10;;;;;;;;;;5018781;28;20049;-61
2022/10/20 00:24:34;;;;;;;20.77;9.33;;;;;;;;;;5020863;28;20049;-61
2022/10/20 00:27:00;;;;;;;13.80;8.03;;;;;;;;;;5018540;28;20423;-62
2022/10/20 00:29:26;;;;;;;18.43;8.83;;;;;;;;;;5019372;28;20037;-62
2022/10/20 00:31:52;;;;;;;13.40;8.07;;;;;;;;;;5018526;28;20049;-62
2022/10/20 00:34:18;;;;;;;21.53;9.20;;;;;;;;;;5020541;28;20065;-62
2022/10/20 00:36:45;;;;;;;17.27;8.50;;;;;;;;;;5019711;28;20050;-61
2022/10/20 00:39:11;;;;;;;16.77;9.13;;;;;;;;;;5018255;28;20502;-62
2022/10/20 00:41:37;;;;;;;21.40;9.57;;;;;;;;;;5019476;28;20073;-61
2022/10/20 00:44:23;;;;;;;19.13;8.30;;;;;;;;;;5018636;28;20066;-62
2022/10/20 00:46:49;;;;;;;14.77;8.63;;;;;;;;;;5017311;28;20063;-62
2022/10/20 00:49:15;;;;;;;19.17;9.03;;;;;;;;;;5021404;28;20041;-61
2022/10/20 00:51:41;;;;;;;12.63;8.53;;;;;;;;;;5023254;28;20049;-62
2022/10/20 00:54:09;;;;;;;17.33;8.30;;;;;;;;;;5018315;28;20452;-61
2022/10/20 00:56:39;;;;;;;13.10;7.43;;;;;;;;;;5017625;28;20454;-62
2022/10/20 00:59:05;;;;;;;20.50;9.33;;;;;;;;;;5019460;28;20056;-62
2022/10/20 01:01:32;;;;;;;18.50;8.87;;;;;;;;;;5018137;28;20057;-62
2022/10/20 01:03:58;;;;;;;18.77;8.27;;;;;;;;;;5021072;28;20498;-61
2022/10/20 01:06:24;;;;;;;16.53;8.80;;;;;;;;;;5018977;28;20511;-62
2022/10/20 01:08:52;;;;;;;16.20;8.73;;;;;;;;;;5020480;28;20045;-61
2022/10/20 01:11:41;;;;;;;20.20;8.70;;;;;;;;;;5021408;28;20132;-62
2022/10/20 01:14:13;;;;;;;16.47;9.17;;;;;;;;;;4988139;28;20057;-61
2022/10/20 01:16:45;;;;;;;18.07;8.63;;;;;;;;;;5019000;28;20048;-61
2022/10/20 01:19:11;;;;;;;16.20;8.87;;;;;;;;;;5024306;28;20045;-61
2022/10/20 01:21:56;;;;;;;14.50;8.40;;;;;;;;;;5029563;28;20053;-62
2022/10/20 01:24:54;;;;;;;15.70;8.37;;;;;;;;;;5025897;28;20057;-62
2022/10/20 01:27:29;;;;;;;21.97;9.67;;;;;;;;;;4956291;28;20208;-62
2022/10/20 01:30:05;;;;;;;18.10;9.03;;;;;;;;;;5009638;28;20041;-62
2022/10/20 01:32:37;;;;;;;16.53;9.67;;;;;;;;;;5007005;28;20060;-61
2022/10/20 01:35:06;;;;;;;22.02;9.23;;;;;;;;;;5009687;28;20523;-61
2022/10/20 01:37:43;;;;;;;17.80;9.13;;;;;;;;;;5010055;28;20065;-61
2022/10/20 01:40:12;;;;;;;17.97;8.30;;;;;;;;;;5008185;28;20042;-62
2022/10/20 01:42:39;;;;;;;14.40;8.10;;;;;;;;;;5009985;28;20046;-61
2022/10/20 01:45:06;;;;;;;15.83;8.50;;;;;;;;;;5009645;28;20054;-61
2022/10/20 01:47:34;;;;;;;20.87;8.80;;;;;;;;;;5009980;28;20092;-62
2022/10/20 01:50:01;;;;;;;15.40;8.17;;;;;;;;;;5009081;28;20575;-62
2022/10/20 01:52:28;;;;;;;17.07;8.43;;;;;;;;;;5012607;28;20056;-61
2022/10/20 01:54:54;;;;;;;15.93;8.03;;;;;;;;;;5029050;28;20057;-61
2022/10/20 01:57:45;;;;;;;15.30;8.17;;;;;;;;;;5029444;28;20049;-61
2022/10/20 02:00:11;;;;;;;17.20;8.13;;;;;;;;;;5027253;28;20452;-61
2022/10/20 02:02:42;;;;;;;16.73;8.50;;;;;;;;;;5029354;28;20060;-61
2022/10/20 02:05:27;;;;;;;17.93;8.87;;;;;;;;;;5029126;28;20136;-61
2022/10/20 02:07:54;;;;;;;14.43;8.60;;;;;;;;;;5027372;28;20411;-61
2022/10/20 02:10:23;;;;;;;14.63;7.53;;;;;;;;;;5029084;28;20042;-61
2022/10/20 02:12:51;;;;;;;20.10;7.73;;;;;;;;;;5028891;28;20052;-61
2022/10/20 02:15:20;;;;;;;18.40;8.20;;;;;;;;;;5029198;28;20041;-61
2022/10/20 02:17:48;;;;;;;18.00;9.27;;;;;;;;;;5028481;28;20504;-61
2022/10/20 02:20:15;;;;;;;16.00;8.90;;;;;;;;;;5028777;28;20463;-62
2022/10/20 02:22:41;;;;;;;12.70;8.17;;;;;;;;;;5022807;28;20038;-61
2022/10/20 02:25:10;;;;;;;19.27;8.83;;;;;;;;;;5009481;28;20049;-61
2022/10/20 02:27:39;;;;;;;17.03;8.30;;;;;;;;;;5009118;28;20061;-62
2022/10/20 02:30:09;;;;;;;17.47;10.20;;;;;;;;;;5009336;28;20046;-61
2022/10/20 02:32:36;;;;;;;18.80;9.47;;;;;;;;;;5009192;28;20057;-61
2022/10/20 02:35:06;;;;;;;14.77;8.17;;;;;;;;;;5009238;28;20053;-61
2022/10/20 02:37:33;;;;;;;13.07;7.53;;;;;;;;;;5007943;28;20061;-61
2022/10/20 02:39:59;;;;;;;19.60;9.53;;;;;;;;;;5009057;28;20048;-61
2022/10/20 02:42:25;;;;;;;20.50;9.63;;;;;;;;;;5008806;28;20050;-62
2022/10/20 02:44:51;;;;;;;15.17;8.90;;;;;;;;;;5008824;28;20046;-61
2022/10/20 02:47:19;;;;;;;19.20;8.90;;;;;;;;;;5011883;28;20045;-62
2022/10/20 02:49:45;;;;;;;26.07;10.17;;;;;;;;;;5020871;28;20045;-62
2022/10/20 02:52:11;;;;;;;13.37;7.90;;;;;;;;;;5009172;28;20054;-62
2022/10/20 02:54:37;;;;;;;18.80;9.77;;;;;;;;;;5028531;28;20586;-62
2022/10/20 02:57:03;;;;;;;16.10;8.37;;;;;;;;;;5027814;28;20084;-62
2022/10/20 02:59:29;;;;;;;19.73;8.97;;;;;;;;;;5028438;28;20042;-61
2022/10/20 03:01:56;;;;;;;17.70;9.97;;;;;;;;;;5028807;28;20049;-61
2022/10/20 03:04:22;;;;;;;19.00;9.90;;;;;;;;;;5020884;28;20883;-61
2022/10/20 03:06:48;;;;;;;21.90;11.00;;;;;;;;;;5007395;28;20103;-61
2022/10/20 03:09:14;;;;;;;20.50;8.97;;;;;;;;;;5008608;28;20046;-61
2022/10/20 03:11:40;;;;;;;20.90;10.30;;;;;;;;;;5008343;28;20053;-62
2022/10/20 03:14:06;;;;;;;20.97;9.93;;;;;;;;;;5008360;28;20050;-61
2022/10/20 03:16:32;;;;;;;25.27;10.27;;;;;;;;;;5008624;28;20041;-61
2022/10/20 03:18:58;;;;;;;20.27;9.77;;;;;;;;;;5008829;28;20042;-61
2022/10/20 03:21:24;;;;;;;18.73;10.20;;;;;;;;;;4990782;28;20045;-62
2022/10/20 03:23:50;;;;;;;17.80;9.07;;;;;;;;;;5007478;28;20046;-61
2022/10/20 03:26:16;;;;;;;14.17;9.73;;;;;;;;;;5008677;28;20050;-62
2022/10/20 03:28:42;;;;;;;26.57;11.10;;;;;;;;;;5008532;28;20085;-62
2022/10/20 03:31:09;;;;;;;21.33;10.37;;;;;;;;;;5012351;28;20046;-62
2022/10/20 03:33:35;;;;;;;18.57;9.47;;;;;;;;;;5012429;28;20069;-62
2022/10/20 03:36:01;;;;;;;21.07;10.80;;;;;;;;;;5012171;28;20053;-61
2022/10/20 03:38:27;;;;;;;18.43;10.50;;;;;;;;;;5012153;28;20046;-61
2022/10/20 03:40:53;;;;;;;18.17;10.93;;;;;;;;;;5012205;28;20057;-61
2022/10/20 03:43:19;;;;;;;15.53;10.80;;;;;;;;;;5011892;28;20049;-61
2022/10/20 03:45:45;;;;;;;18.13;10.90;;;;;;;;;;5010569;28;20702;-62
2022/10/20 03:48:12;;;;;;;18.83;11.53;;;;;;;;;;5012070;28;20042;-62
2022/10/20 03:50:38;;;;;;;23.60;11.57;;;;;;;;;;5012137;28;20042;-62
2022/10/20 03:53:04;;;;;;;19.70;12.40;;;;;;;;;;5011962;28;20099;-62
2022/10/20 03:55:30;;;;;;;18.30;11.70;;;;;;;;;;5011487;28;20041;-62
2022/10/20 03:57:57;;;;;;;22.63;11.47;;;;;;;;;;5013180;28;20045;-62
2022/10/20 04:00:23;;;;;;;23.13;12.30;;;;;;;;;;5011444;28;20057;-62
2022/10/20 04:02:49;;;;;;;28.63;11.67;;;;;;;;;;5011835;28;20046;-62
2022/10/20 04:05:19;;;;;;;19.50;11.57;;;;;;;;;;5011327;28;20038;-62
2022/10/20 04:07:45;;;;;;;20.70;11.63;;;;;;;;;;5010593;28;20049;-61
2022/10/20 04:10:13;;;;;;;23.30;11.30;;;;;;;;;;5011541;28;20049;-62
2022/10/20 04:12:39;;;;;;;23.13;12.07;;;;;;;;;;5012094;28;20133;-61
2022/10/20 04:15:05;;;;;;;22.40;12.07;;;;;;;;;;5010974;28;20042;-62
2022/10/20 04:17:31;;;;;;;22.93;12.57;;;;;;;;;;5011767;28;20042;-62
2022/10/20 04:19:57;;;;;;;23.03;14.10;;;;;;;;;;5011442;28;20630;-62
2022/10/20 04:22:24;;;;;;;19.40;12.00;;;;;;;;;;5011417;28;20133;-61
2022/10/20 04:24:50;;;;;;;21.67;12.63;;;;;;;;;;5012087;28;20046;-62
2022/10/20 04:27:16;;;;;;;23.43;13.03;;;;;;;;;;5011261;28;20524;-62
2022/10/20 04:29:42;;;;;;;22.70;13.83;;;;;;;;;;5011443;28;20757;-62
2022/10/20 04:32:08;;;;;;;19.97;13.50;;;;;;;;;;5011429;28;20651;-62
2022/10/20 04:34:35;;;;;;;22.03;13.60;;;;;;;;;;5010581;28;20141;-62
2022/10/20 04:37:01;;;;;;;23.33;12.70;;;;;;;;;;5011228;28;20058;-62
2022/10/20 04:39:27;;;;;;;20.80;13.37;;;;;;;;;;5010977;28;20096;-62
2022/10/20 04:41:53;;;;;;;25.23;14.23;;;;;;;;;;5009495;28;20562;-61
2022/10/20 04:44:19;;;;;;;20.40;13.90;;;;;;;;;;5010612;28;20052;-62
2022/10/20 04:46:46;;;;;;;26.30;13.47;;;;;;;;;;5011730;28;20041;-62
2022/10/20 04:49:12;;;;;;;24.23;14.60;;;;;;;;;;5009583;28;20041;-62
2022/10/20 04:51:38;;;;;;;25.50;14.47;;;;;;;;;;5010909;28;20054;-62
2022/10/20 04:54:04;;;;;;;28.00;15.53;;;;;;;;;;5010690;28;20630;-62
2022/10/20 04:56:30;;;;;;;25.73;14.93;;;;;;;;;;5010769;28;20108;-62
2022/10/20 04:58:57;;;;;;;26.27;14.73;;;;;;;;;;5010643;28;20052;-62
2022/10/20 05:01:24;;;;;;;28.77;14.97;;;;;;;;;;5010736;28;20411;-62
2022/10/20 05:03:51;;;;;;;27.80;15.50;;;;;;;;;;5024887;28;20052;-62
2022/10/20 05:06:24;;;;;;;32.43;15.03;;;;;;;;;;5029775;28;20045;-62
2022/10/20 05:08:51;;;;;;;29.90;15.63;;;;;;;;;;5030708;28;20049;-62
2022/10/20 05:11:19;;;;;;;28.43;15.37;;;;;;;;;;5030417;28;20056;-62
2022/10/20 05:13:45;;;;;;;30.70;17.27;;;;;;;;;;5017600;28;20057;-62
2022/10/20 05:16:12;;;;;;;27.03;16.43;;;;;;;;;;5010148;28;20463;-62
2022/10/20 05:18:39;;;;;;;35.90;18.80;;;;;;;;;;5010272;28;20689;-62
2022/10/20 05:21:09;;;;;;;27.20;17.33;;;;;;;;;;5010198;28;20137;-62
2022/10/20 05:23:36;;;;;;;24.00;15.47;;;;;;;;;;5020932;28;20049;-62
2022/10/20 05:26:03;;;;;;;27.07;17.17;;;;;;;;;;5014414;28;20094;-62
2022/10/20 05:28:29;;;;;;;28.53;17.97;;;;;;;;;;5014164;28;20044;-62
2022/10/20 05:30:56;;;;;;;26.50;16.57;;;;;;;;;;5027875;28;20044;-62
2022/10/20 05:33:22;;;;;;;26.17;17.73;;;;;;;;;;5018782;28;20565;-62
2022/10/20 05:35:48;;;;;;;24.33;15.93;;;;;;;;;;5009870;28;20049;-62
2022/10/20 05:38:14;;;;;;;27.57;17.07;;;;;;;;;;5018066;28;20042;-62
2022/10/20 05:40:40;;;;;;;33.10;18.47;;;;;;;;;;5019762;28;20057;-62
2022/10/20 05:43:06;;;;;;;28.60;17.30;;;;;;;;;;5019050;28;20052;-62
2022/10/20 05:45:32;;;;;;;34.93;18.30;;;;;;;;;;5020256;28;20053;-61
2022/10/20 05:47:58;;;;;;;26.97;17.77;;;;;;;;;;5018405;28;20468;-62
2022/10/20 05:50:24;;;;;;;31.40;18.23;;;;;;;;;;5019277;28;20042;-62
2022/10/20 05:52:50;;;;;;;31.57;18.80;;;;;;;;;;5019746;28;20041;-61
2022/10/20 05:55:16;;;;;;;29.03;17.73;;;;;;;;;;5016061;28;20055;-62
2022/10/20 05:57:42;;;;;;;27.53;18.00;;;;;;;;;;5018355;28;20419;-62
2022/10/20 06:00:09;;;;;;;29.60;17.87;;;;;;;;;;5017653;28;20116;-61
2022/10/20 06:02:35;;;;;;;28.80;18.60;;;;;;;;;;5018064;28;20052;-62
2022/10/20 06:05:01;;;;;;;27.33;17.77;;;;;;;;;;5017589;28;20412;-61
2022/10/20 06:07:27;;;;;;;28.60;18.30;;;;;;;;;;5016609;28;20454;-62
2022/10/20 06:09:53;;;;;;;27.20;17.43;;;;;;;;;;5017685;28;20046;-62
2022/10/20 06:12:19;;;;;;;27.10;17.20;;;;;;;;;;5018484;28;20844;-62
2022/10/20 06:14:45;;;;;;;28.17;16.13;;;;;;;;;;5017733;28;20041;-62
2022/10/20 06:17:11;;;;;;;26.77;18.17;;;;;;;;;;5016420;28;20128;-62
2022/10/20 06:19:37;;;;;;;24.33;16.97;;;;;;;;;;5018443;28;20052;-62
2022/10/20 06:22:04;;;;;;;28.70;16.67;;;;;;;;;;5017397;28;20053;-62
2022/10/20 06:24:30;;;;;;;29.63;19.50;;;;;;;;;;5016136;28;20575;-62
2022/10/20 06:26:56;;;;;;;29.77;18.60;;;;;;;;;;5017492;28;21042;-62
2022/10/20 06:29:22;;;;;;;25.87;18.37;;;;;;;;;;5018523;28;20132;-62
2022/10/20 06:31:49;;;;;;;26.33;18.67;;;;;;;;;;5018279;28;20504;-62
2022/10/20 06:34:17;;;;;;;24.97;16.80;;;;;;;;;;5016546;28;20053;-62
2022/10/20 06:36:43;;;;;;;28.80;18.43;;;;;;;;;;5016985;28;20486;-62
2022/10/20 06:39:11;;;;;;;23.77;16.17;;;;;;;;;;5017164;28;20050;-62
2022/10/20 06:41:37;;;;;;;29.83;18.20;;;;;;;;;;5017252;28;20038;-62
2022/10/20 06:44:03;;;;;;;22.50;17.53;;;;;;;;;;5017675;28;20046;-62
2022/10/20 06:46:31;;;;;;;27.87;17.97;;;;;;;;;;5015812;28;20128;-61
2022/10/20 06:49:02;;;;;;;36.07;18.23;;;;;;;;;;5012290;28;20116;-61
2022/10/20 06:51:28;;;;;;;25.27;16.50;;;;;;;;;;5018106;28;20385;-61
2022/10/20 06:53:55;;;;;;;23.77;17.00;;;;;;;;;;5019739;28;20100;-61
2022/10/20 06:56:22;;;;;;;21.30;15.33;;;;;;;;;;5007943;28;20080;-61
2022/10/20 06:58:49;;;;;;;23.80;16.47;;;;;;;;;;5015645;28;20511;-62
2022/10/20 07:01:17;;;;;;;22.13;16.00;;;;;;;;;;5010825;28;20053;-61
2022/10/20 07:03:44;;;;;;;26.37;15.97;;;;;;;;;;5015407;28;20156;-62
2022/10/20 07:06:13;;;;;;;23.07;16.50;;;;;;;;;;5011579;28;20053;-61
2022/10/20 07:08:39;;;;;;;27.10;15.80;;;;;;;;;;5011477;28;20045;-61
2022/10/20 07:11:05;;;;;;;22.37;15.60;;;;;;;;;;5013304;28;20058;-61
2022/10/20 07:13:31;;;;;;;21.93;14.40;;;;;;;;;;5022867;28;20844;-61
2022/10/20 07:15:58;;;;;;;21.23;15.03;;;;;;;;;;5012521;28;20522;-61
2022/10/20 07:18:25;;;;;;;21.13;15.17;;;;;;;;;;5030004;28;20041;-61
2022/10/20 07:20:51;;;;;;;21.33;14.43;;;;;;;;;;5018692;28;20532;-61
2022/10/20 07:23:17;;;;;;;20.93;14.33;;;;;;;;;;5017958;28;20512;-61
2022/10/20 07:25:43;;;;;;;22.03;14.33;;;;;;;;;;5009902;28;20108;-61
2022/10/20 07:28:09;;;;;;;20.37;14.23;;;;;;;;;;5016644;28;20184;-61
2022/10/20 07:30:42;;;;;;;19.37;14.33;;;;;;;;;;5010973;28;20057;-62
2022/10/20 07:33:08;;;;;;;20.47;14.40;;;;;;;;;;5012485;28;20053;-62
2022/10/20 07:35:35;;;;;;;20.53;14.27;;;;;;;;;;5012062;28;20500;-61
2022/10/20 07:38:01;;;;;;;20.90;14.17;;;;;;;;;;5010842;28;20081;-62
2022/10/20 07:40:28;;;;;;;22.00;13.53;;;;;;;;;;5017015;28;20041;-62
2022/10/20 07:42:54;;;;;;;17.97;13.17;;;;;;;;;;5025677;28;20099;-61
2022/10/20 07:45:20;;;;;;;17.50;13.27;;;;;;;;;;5017130;28;20045;-62
2022/10/20 07:47:46;;;;;;;18.50;13.30;;;;;;;;;;5020566;28;20052;-62
2022/10/20 07:50:12;;;;;;;17.87;12.97;;;;;;;;;;5026083;28;20056;-61
2022/10/20 07:52:38;;;;;;;21.20;14.30;;;;;;;;;;5016165;28;20464;-62
2022/10/20 07:55:05;;;;;;;17.67;13.77;;;;;;;;;;5009638;28;20554;-62
2022/10/20 07:57:32;;;;;;;17.53;13.23;;;;;;;;;;5010115;28;20049;-62
2022/10/20 07:59:58;;;;;;;15.47;11.67;;;;;;;;;;5014795;28;20041;-62
2022/10/20 08:02:24;;;;;;;19.20;13.10;;;;;;;;;;5009276;28;20053;-62
2022/10/20 08:04:50;;;;;;;19.50;12.07;;;;;;;;;;5014529;28;20050;-62
2022/10/20 08:07:16;;;;;;;16.97;12.07;;;;;;;;;;5029465;28;20041;-62
2022/10/20 08:09:42;;;;;;;17.30;11.87;;;;;;;;;;5025156;28;20041;-62
2022/10/20 08:12:08;;;;;;;16.87;10.83;;;;;;;;;;5018874;28;20052;-61
2022/10/20 08:14:36;;;;;;;16.37;11.53;;;;;;;;;;5020673;28;20077;-62
2022/10/20 08:17:03;;;;;;;15.27;12.10;;;;;;;;;;5019879;28;20053;-62
2022/10/20 08:19:29;;;;;;;20.60;12.00;;;;;;;;;;5019797;28;20113;-62
2022/10/20 08:21:55;;;;;;;12.77;10.27;;;;;;;;;;5020640;28;20524;-62
2022/10/20 08:24:21;;;;;;;15.10;10.50;;;;;;;;;;5017757;28;20064;-62
2022/10/20 08:26:47;;;;;;;17.93;11.07;;;;;;;;;;5020651;28;20121;-62
2022/10/20 08:29:14;;;;;;;14.50;9.93;;;;;;;;;;5019088;28;20049;-62
2022/10/20 08:31:40;;;;;;;14.23;10.97;;;;;;;;;;5021120;28;20046;-61
2022/10/20 08:34:06;;;;;;;12.33;10.03;;;;;;;;;;5019178;28;20065;-62
2022/10/20 08:36:33;;;;;;;15.57;9.97;;;;;;;;;;5020657;28;20458;-62
2022/10/20 08:38:59;;;;;;;15.63;9.97;;;;;;;;;;5019336;28;20088;-61
2022/10/20 08:41:27;;;;;;;14.17;9.77;;;;;;;;;;5018283;28;20506;-62
2022/10/20 08:43:55;;;;;;;12.33;9.63;;;;;;;;;;5021075;28;20045;-62
2022/10/20 08:46:24;;;;;;;13.80;9.47;;;;;;;;;;5019969;28;20053;-62
2022/10/20 08:48:51;;;;;;;15.53;9.60;;;;;;;;;;5018321;28;20050;-62
2022/10/20 08:51:18;;;;;;;12.90;8.90;;;;;;;;;;5020366;28;20087;-62
2022/10/20 08:53:45;;;;;;;11.03;8.23;;;;;;;;;;5020477;28;20124;-62
2022/10/20 08:56:12;;;;;;;13.70;8.50;;;;;;;;;;5017656;28;20049;-62
2022/10/20 08:58:43;;;;;;;11.10;8.60;;;;;;;;;;5028681;28;20045;-62
2022/10/20 09:01:16;;;;;;;11.90;8.70;;;;;;;;;;5024601;28;20069;-62
2022/10/20 09:03:42;;;;;;;13.10;8.82;;;;;;;;;;5016811;28;20486;-62
2022/10/20 09:06:12;;;;;;;15.03;8.23;;;;;;;;;;5029821;28;20492;-62
2022/10/20 09:08:41;;;;;;;13.07;8.40;;;;;;;;;;5029694;28;20068;-62
2022/10/20 09:11:08;;;;;;;12.60;8.60;;;;;;;;;;5029921;28;20054;-62
2022/10/20 09:13:34;;;;;;;14.87;8.63;;;;;;;;;;5017208;28;20124;-62
2022/10/20 09:16:02;;;;;;;16.97;7.77;;;;;;;;;;5010133;28;20046;-62
2022/10/20 09:18:29;;;;;;;11.00;8.03;;;;;;;;;;5009657;28;20053;-62
2022/10/20 09:21:12;;;;;;;12.53;7.30;;;;;;;;;;5009591;28;20140;-61
2022/10/20 09:23:40;;;;;;;10.32;7.97;;;;;;;;;;5009524;28;20046;-62
2022/10/20 09:26:16;;;;;;;12.63;7.80;;;;;;;;;;5009644;28;20045;-62
2022/10/20 09:28:42;;;;;;;10.80;7.10;;;;;;;;;;5009031;28;20042;-62
2022/10/20 09:31:33;;;;;;;9.60;6.60;;;;;;;;;;5008310;28;20046;-62
2022/10/20 09:34:00;;;;;;;7.00;5.83;;;;;;;;;;5010197;28;20127;-62
2022/10/20 09:36:30;;;;;;;9.60;6.27;;;;;;;;;;5009614;28;20423;-61
2022/10/20 09:38:56;;;;;;;10.53;6.60;;;;;;;;;;5009620;28;20060;-61
2022/10/20 09:41:23;;;;;;;11.17;5.90;;;;;;;;;;5009927;28;20392;-62
2022/10/20 09:43:54;;;;;;;7.43;6.07;;;;;;;;;;5009941;28;20053;-62
2022/10/20 09:46:21;;;;;;;9.17;5.77;;;;;;;;;;5009791;28;20104;-61
2022/10/20 09:48:49;;;;;;;8.03;6.17;;;;;;;;;;5009063;28;20413;-62
2022/10/20 09:51:16;;;;;;;7.73;5.57;;;;;;;;;;5009336;28;20056;-62
2022/10/20 09:53:53;;;;;;;9.37;5.60;;;;;;;;;;5009496;28;20492;-62
2022/10/20 09:56:34;;;;;;;9.17;5.70;;;;;;;;;;5008567;28;20042;-62
2022/10/20 09:59:01;;;;;;;6.77;5.57;;;;;;;;;;5012140;28;20069;-62
2022/10/20 10:01:28;;;;;;;10.07;5.47;;;;;;;;;;5009183;28;20404;-61
2022/10/20 10:03:58;;;;;;;9.47;5.67;;;;;;;;;;5009413;28;20474;-62
2022/10/20 10:06:36;;;;;;;11.03;5.90;;;;;;;;;;5009361;28;20042;-61
2022/10/20 10:09:03;;;;;;;7.77;5.50;;;;;;;;;;5009102;28;20046;-62
2022/10/20 10:11:33;;;;;;;8.33;5.23;;;;;;;;;;5009380;28;20074;-61
2022/10/20 10:13:59;;;;;;;8.47;5.83;;;;;;;;;;5008838;28;20050;-62
2022/10/20 10:16:26;;;;;;;9.03;5.23;;;;;;;;;;5009455;28;20129;-61
2022/10/20 10:19:00;;;;;;;7.13;5.13;;;;;;;;;;5009114;28;20595;-62
2022/10/20 10:21:27;;;;;;;6.17;4.57;;;;;;;;;;5009285;28;20116;-62
2022/10/20 10:23:55;;;;;;;8.23;5.00;;;;;;;;;;5012064;28;20057;-61
2022/10/20 10:26:39;;;;;;;10.90;4.80;;;;;;;;;;5009432;28;20116;-62
2022/10/20 10:29:15;;;;;;;9.00;4.53;;;;;;;;;;5009114;28;20053;-62
2022/10/20 10:31:46;;;;;;;7.90;4.63;;;;;;;;;;5009000;28;20041;-62
2022/10/20 10:34:12;;;;;;;7.77;5.03;;;;;;;;;;5007120;28;20103;-61
2022/10/20 10:36:38;;;;;;;9.63;5.10;;;;;;;;;;5010005;28;20049;-62
2022/10/20 10:39:06;;;;;;;9.57;5.13;;;;;;;;;;5008450;28;20050;-62
2022/10/20 10:41:46;;;;;;;7.03;5.40;;;;;;;;;;5008124;28;20116;-62
2022/10/20 10:44:33;;;;;;;13.20;5.60;;;;;;;;;;5011510;28;20121;-61
2022/10/20 10:47:16;;;;;;;6.47;4.90;;;;;;;;;;5016466;28;20042;-62
2022/10/20 10:49:56;;;;;;;10.48;5.18;;;;;;;;;;5013794;28;20033;-62
2022/10/20 10:52:25;;;;;;;8.07;4.93;;;;;;;;;;5018207;28;20603;-62
2022/10/20 10:55:12;;;;;;;8.90;6.03;;;;;;;;;;5028783;28;20426;-62
2022/10/20 10:57:41;;;;;;;10.17;5.80;;;;;;;;;;5022400;28;20045;-61
2022/10/20 11:00:12;;;;;;;7.20;6.00;;;;;;;;;;5018052;28;20524;-62
2022/10/20 11:02:59;;;;;;;9.20;5.70;;;;;;;;;;5015739;28;20508;-61
2022/10/20 11:05:37;;;;;;;8.27;5.50;;;;;;;;;;5018432;28;20567;-62
2022/10/20 11:08:06;;;;;;;7.47;5.33;;;;;;;;;;5018094;28;20054;-61
2022/10/20 11:10:50;;;;;;;9.80;6.13;;;;;;;;;;5017798;28;20038;-61
2022/10/20 11:13:26;;;;;;;13.73;7.63;;;;;;;;;;5012444;28;20496;-62
2022/10/20 11:16:06;;;;;;;7.27;6.43;;;;;;;;;;5008959;28;20041;-61
2022/10/20 11:18:44;;;;;;;13.87;7.67;;;;;;;;;;5009425;28;20049;-62
2022/10/20 11:21:28;;;;;;;8.13;6.70;;;;;;;;;;5018643;28;20501;-61
2022/10/20 11:24:10;;;;;;;7.87;6.13;;;;;;;;;;5029040;28;20679;-62
2022/10/20 11:26:38;;;;;;;10.17;6.73;;;;;;;;;;5028828;28;20037;-62
2022/10/20 11:29:34;;;;;;;10.27;6.83;;;;;;;;;;5028928;28;20048;-62
2022/10/20 11:32:19;;;;;;;11.97;7.10;;;;;;;;;;5011643;28;20108;-62
2022/10/20 11:35:05;;;;;;;10.80;7.47;;;;;;;;;;5028713;28;20050;-62
2022/10/20 11:37:35;;;;;;;8.23;6.50;;;;;;;;;;5028679;28;20048;-62
2022/10/20 11:40:07;;;;;;;10.30;7.37;;;;;;;;;;5024279;28;20057;-62
2022/10/20 11:42:52;;;;;;;9.37;6.73;;;;;;;;;;5009923;28;20044;-62
2022/10/20 11:45:24;;;;;;;9.60;7.33;;;;;;;;;;5015677;28;20421;-62
2022/10/20 11:48:10;;;;;;;9.77;6.70;;;;;;;;;;5014497;28;20038;-62
2022/10/20 11:50:36;;;;;;;9.77;7.10;;;;;;;;;;5020903;28;20034;-61
2022/10/20 11:53:16;;;;;;;11.67;6.97;;;;;;;;;;5022501;28;20060;-62
2022/10/20 11:55:47;;;;;;;11.10;7.37;;;;;;;;;;5020085;28;20412;-61
2022/10/20 11:58:26;;;;;;;12.30;7.93;;;;;;;;;;5015063;28;20045;-62
2022/10/20 12:01:11;;;;;;;10.83;7.53;;;;;;;;;;5024246;28;20115;-61
2022/10/20 12:04:12;;;;;;;11.97;7.37;;;;;;;;;;5031173;28;20084;-61
2022/10/20 12:06:41;;;;;;;14.27;7.23;;;;;;;;;;4948814;29;20079;-61
2022/10/20 12:09:13;;;;;;;9.60;7.23;;;;;;;;;;5011689;28;20057;-61
2022/10/20 12:11:49;;;;;;;9.33;7.43;;;;;;;;;;5031223;28;20045;-61
2022/10/20 12:14:18;;;;;;;11.50;8.10;;;;;;;;;;5029468;28;20050;-61
2022/10/20 12:16:54;;;;;;;11.03;8.10;;;;;;;;;;5029552;28;20048;-62
2022/10/20 12:19:21;;;;;;;11.30;8.43;;;;;;;;;;5028457;28;20046;-61
2022/10/20 12:21:58;;;;;;;8.97;7.87;;;;;;;;;;5029206;28;20053;-61
2022/10/20 12:24:38;;;;;;;13.23;8.40;;;;;;;;;;5029172;28;20128;-61
2022/10/20 12:27:10;;;;;;;9.90;8.00;;;;;;;;;;5029146;28;20049;-61
2022/10/20 12:29:36;;;;;;;13.47;8.30;;;;;;;;;;5019115;28;20042;-61
2022/10/20 12:32:22;;;;;;;11.47;8.17;;;;;;;;;;5008374;28;20064;-61
2022/10/20 12:34:50;;;;;;;11.97;9.10;;;;;;;;;;5010181;28;20070;-61
2022/10/20 12:37:16;;;;;;;13.50;9.50;;;;;;;;;;5010837;28;20176;-61
2022/10/20 12:39:42;;;;;;;16.50;9.97;;;;;;;;;;5010819;28;20054;-62
2022/10/20 12:42:18;;;;;;;13.53;10.20;;;;;;;;;;5010199;28;20045;-61
2022/10/20 12:44:45;;;;;;;17.93;10.80;;;;;;;;;;5009870;28;20423;-61
2022/10/20 12:47:30;;;;;;;15.10;11.63;;;;;;;;;;5010847;28;20474;-62
2022/10/20 12:49:59;;;;;;;15.47;10.97;;;;;;;;;;5010768;28;20411;-62
2022/10/20 12:52:29;;;;;;;19.63;13.20;;;;;;;;;;5010552;28;20526;-62
2022/10/20 12:55:03;;;;;;;14.13;11.77;;;;;;;;;;5010271;28;20827;-62
2022/10/20 12:57:29;;;;;;;;;;;;;;;;;;5011161;28;20045;-62
2022/10/20 12:59:55;;;;;;;17.50;12.40;;;;;;;;;;5010795;28;20489;-63
2022/10/20 13:02:24;;;;;;;16.97;13.50;;;;;;;;;;5009288;28;20373;-63
2022/10/20 13:05:02;;;;;;;19.57;12.97;;;;;;;;;;5010481;28;20046;-63
2022/10/20 13:07:47;;;;;;;19.47;14.23;;;;;;;;;;5010579;28;20050;-63
2022/10/20 13:10:31;;;;;;;22.43;14.87;;;;;;;;;;5010310;28;20037;-64
2022/10/20 13:13:00;;;;;;;23.73;15.73;;;;;;;;;;5009946;28;20523;-64
2022/10/20 13:15:32;;;;;;;25.83;15.97;;;;;;;;;;5010221;28;20407;-64
2022/10/20 13:18:15;;;;;;;25.00;17.60;;;;;;;;;;5010246;28;20455;-64
2022/10/20 13:21:11;;;;;;;24.03;16.57;;;;;;;;;;5010384;28;20160;-64
2022/10/20 13:23:39;;;;;;;23.60;15.17;;;;;;;;;;4997272;28;20054;-65
2022/10/20 13:26:22;;;;;;;20.70;16.23;;;;;;;;;;5009419;28;20049;-65
2022/10/20 13:28:49;;;;;;;26.63;16.63;;;;;;;;;;5008693;28;20125;-65
2022/10/20 13:31:33;;;;;;;26.67;16.60;;;;;;;;;;5010113;28;20054;-65
2022/10/20 13:34:18;;;;;;;25.43;16.73;;;;;;;;;;5009962;28;20058;-64
2022/10/20 13:37:02;;;;;;;25.77;16.83;;;;;;;;;;5009614;28;20065;-65
2022/10/20 13:39:31;;;;;;;25.63;17.23;;;;;;;;;;5009344;28;20050;-65
2022/10/20 13:42:02;;;;;;;22.43;17.77;;;;;;;;;;5009842;28;20054;-65
2022/10/20 13:44:48;;;;;;;33.83;20.07;;;;;;;;;;5008529;28;20046;-65
2022/10/20 13:47:38;;;;;;;32.47;18.33;;;;;;;;;;4979011;28;20054;-65
2022/10/20 13:50:09;;;;;;;33.73;19.97;;;;;;;;;;5008054;28;20054;-64
2022/10/20 13:52:39;;;;;;;35.70;20.50;;;;;;;;;;5009000;28;20559;-64
2022/10/20 13:55:06;;;;;;;38.30;20.50;;;;;;;;;;5008985;28;20096;-64
2022/10/20 13:57:34;;;;;;;45.40;21.50;;;;;;;;;;5008617;28;20068;-64
2022/10/20 14:00:01;;;;;;;45.90;22.47;;;;;;;;;;5009777;28;20096;-64
2022/10/20 14:02:29;;;;;;;50.23;24.97;;;;;;;;;;5009236;28;20057;-64
2022/10/20 14:05:03;;;;;;;41.70;23.10;;;;;;;;;;5009027;28;20056;-64
2022/10/20 14:07:36;;;;;;;47.50;24.83;;;;;;;;;;5009371;28;20037;-64
2022/10/20 14:10:02;;;;;;;39.30;22.83;;;;;;;;;;5009761;28;20413;-64
2022/10/20 14:12:28;;;;;;;58.27;27.63;;;;;;;;;;5009024;28;20157;-64
2022/10/20 14:14:58;;;;;;;53.83;27.47;;;;;;;;;;5008649;28;20050;-64
2022/10/20 14:17:24;;;;;;;48.70;25.27;;;;;;;;;;5009049;28;20054;-64
2022/10/20 14:19:51;;;;;;;44.90;23.97;;;;;;;;;;5008462;28;20053;-64
2022/10/20 14:22:17;;;;;;;42.33;24.50;;;;;;;;;;5008731;28;20096;-64
2022/10/20 14:24:44;;;;;;;43.40;23.93;;;;;;;;;;5009050;28;20183;-64
2022/10/20 14:27:15;;;;;;;43.23;23.67;;;;;;;;;;5008823;28;20103;-64
2022/10/20 14:29:41;;;;;;;50.23;25.33;;;;;;;;;;5008811;28;20416;-64
2022/10/20 14:32:07;;;;;;;48.13;25.93;;;;;;;;;;5008254;28;20095;-64
2022/10/20 14:34:35;;;;;;;44.00;24.63;;;;;;;;;;5007570;28;20061;-64
2022/10/20 14:37:01;;;;;;;48.90;25.50;;;;;;;;;;5007573;28;20042;-64
2022/10/20 14:39:33;;;;;;;41.03;22.60;;;;;;;;;;5007510;28;20042;-64